sensor_id;sensor_type;location;lat;lon;timestamp;temperature;humidity
37560;DHT22;23398;50.928;7.084;2023-06-05T00:00:54;15.40;51.70
37560;DHT22;23398;50.928;7.084;2023-06-05T00:03:20;15.30;51.50
37560;DHT22;23398;50.928;7.084;2023-06-05T00:05:46;15.30;51.80
37560;DHT22;23398;50.928;7.084;2023-06-05T00:08:12;15.30;51.80
37560;DHT22;23398;50.928;7.084;2023-06-05T00:10:38;15.20;52.20
37560;DHT22;23398;50.928;7.084;2023-06-05T00:13:03;15.20;52.30
37560;DHT22;23398;50.928;7.084;2023-06-05T00:15:29;15.10;52.30
37560;DHT22;23398;50.928;7.084;2023-06-05T00:17:56;15.00;52.40
37560;DHT22;23398;50.928;7.084;2023-06-05T00:20:22;15.00;52.60
37560;DHT22;23398;50.928;7.084;2023-06-05T00:22:48;14.90;52.60
37560;DHT22;23398;50.928;7.084;2023-06-05T00:25:14;14.90;52.70
37560;DHT22;23398;50.928;7.084;2023-06-05T00:27:40;14.80;52.60
37560;DHT22;23398;50.928;7.084;2023-06-05T00:30:10;14.80;52.80
37560;DHT22;23398;50.928;7.084;2023-06-05T00:32:36;14.70;52.90
37560;DHT22;23398;50.928;7.084;2023-06-05T00:35:02;14.60;53.10
37560;DHT22;23398;50.928;7.084;2023-06-05T00:37:28;14.50;53.30
37560;DHT22;23398;50.928;7.084;2023-06-05T00:39:53;14.50;53.70
37560;DHT22;23398;50.928;7.084;2023-06-05T00:42:19;14.40;53.90
37560;DHT22;23398;50.928;7.084;2023-06-05T00:44:45;14.40;54.20
37560;DHT22;23398;50.928;7.084;2023-06-05T00:47:11;14.40;54.30
37560;DHT22;23398;50.928;7.084;2023-06-05T00:49:37;14.30;54.20
37560;DHT22;23398;50.928;7.084;2023-06-05T00:52:03;14.30;54.20
37560;DHT22;23398;50.928;7.084;2023-06-05T00:54:29;14.30;54.30
37560;DHT22;23398;50.928;7.084;2023-06-05T00:56:55;14.20;54.50
37560;DHT22;23398;50.928;7.084;2023-06-05T00:59:21;14.20;54.70
37560;DHT22;23398;50.928;7.084;2023-06-05T01:01:46;14.10;54.80
37560;DHT22;23398;50.928;7.084;2023-06-05T01:04:13;14.10;55.00
37560;DHT22;23398;50.928;7.084;2023-06-05T01:06:39;14.00;55.10
37560;DHT22;23398;50.928;7.084;2023-06-05T01:09:09;14.00;55.10
37560;DHT22;23398;50.928;7.084;2023-06-05T01:11:55;13.90;55.10
37560;DHT22;23398;50.928;7.084;2023-06-05T01:14:24;13.90;55.40
37560;DHT22;23398;50.928;7.084;2023-06-05T01:16:53;13.80;55.20
37560;DHT22;23398;50.928;7.084;2023-06-05T01:19:20;13.80;55.30
37560;DHT22;23398;50.928;7.084;2023-06-05T01:21:49;13.70;55.40
37560;DHT22;23398;50.928;7.084;2023-06-05T01:24:15;13.60;55.60
37560;DHT22;23398;50.928;7.084;2023-06-05T01:27:06;13.60;55.60
37560;DHT22;23398;50.928;7.084;2023-06-05T01:29:53;13.50;56.40
37560;DHT22;23398;50.928;7.084;2023-06-05T01:32:32;13.40;56.20
37560;DHT22;23398;50.928;7.084;2023-06-05T01:35:04;13.40;56.20
37560;DHT22;23398;50.928;7.084;2023-06-05T01:37:33;13.30;56.00
37560;DHT22;23398;50.928;7.084;2023-06-05T01:40:11;13.20;56.00
37560;DHT22;23398;50.928;7.084;2023-06-05T01:42:38;13.20;56.20
37560;DHT22;23398;50.928;7.084;2023-06-05T01:45:06;13.10;56.30
37560;DHT22;23398;50.928;7.084;2023-06-05T01:47:34;13.00;56.60
37560;DHT22;23398;50.928;7.084;2023-06-05T01:50:00;13.00;56.70
37560;DHT22;23398;50.928;7.084;2023-06-05T01:52:26;12.90;56.70
37560;DHT22;23398;50.928;7.084;2023-06-05T01:54:52;12.80;56.90
37560;DHT22;23398;50.928;7.084;2023-06-05T01:57:18;12.80;57.00
37560;DHT22;23398;50.928;7.084;2023-06-05T01:59:44;12.70;57.10
37560;DHT22;23398;50.928;7.084;2023-06-05T02:02:11;12.70;57.30
37560;DHT22;23398;50.928;7.084;2023-06-05T02:04:37;12.60;57.40
37560;DHT22;23398;50.928;7.084;2023-06-05T02:07:03;12.60;57.50
37560;DHT22;23398;50.928;7.084;2023-06-05T02:09:31;12.50;57.50
37560;DHT22;23398;50.928;7.084;2023-06-05T02:11:59;12.40;57.50
37560;DHT22;23398;50.928;7.084;2023-06-05T02:14:32;12.40;57.70
37560;DHT22;23398;50.928;7.084;2023-06-05T02:17:01;12.30;57.80
37560;DHT22;23398;50.928;7.084;2023-06-05T02:19:30;12.30;57.60
37560;DHT22;23398;50.928;7.084;2023-06-05T02:21:56;12.20;57.60
37560;DHT22;23398;50.928;7.084;2023-06-05T02:24:21;12.20;57.80
37560;DHT22;23398;50.928;7.084;2023-06-05T02:26:48;12.10;58.00
37560;DHT22;23398;50.928;7.084;2023-06-05T02:29:13;12.10;58.10
37560;DHT22;23398;50.928;7.084;2023-06-05T02:31:39;12.00;58.20
37560;DHT22;23398;50.928;7.084;2023-06-05T02:34:05;12.00;58.30
37560;DHT22;23398;50.928;7.084;2023-06-05T02:36:30;11.90;58.40
37560;DHT22;23398;50.928;7.084;2023-06-05T02:38:58;11.90;58.60
37560;DHT22;23398;50.928;7.084;2023-06-05T02:41:25;11.90;58.80
37560;DHT22;23398;50.928;7.084;2023-06-05T02:43:52;11.80;58.70
37560;DHT22;23398;50.928;7.084;2023-06-05T02:46:19;11.80;58.90
37560;DHT22;23398;50.928;7.084;2023-06-05T02:48:44;11.80;59.10
37560;DHT22;23398;50.928;7.084;2023-06-05T02:51:10;11.80;59.30
37560;DHT22;23398;50.928;7.084;2023-06-05T02:53:39;11.70;59.20
37560;DHT22;23398;50.928;7.084;2023-06-05T02:56:05;11.70;59.20
37560;DHT22;23398;50.928;7.084;2023-06-05T02:58:31;11.70;59.20
37560;DHT22;23398;50.928;7.084;2023-06-05T03:01:02;11.60;59.30
37560;DHT22;23398;50.928;7.084;2023-06-05T03:03:30;11.60;59.50
37560;DHT22;23398;50.928;7.084;2023-06-05T03:05:58;11.60;59.50
37560;DHT22;23398;50.928;7.084;2023-06-05T03:08:30;11.50;59.50
37560;DHT22;23398;50.928;7.084;2023-06-05T03:10:55;11.50;59.60
37560;DHT22;23398;50.928;7.084;2023-06-05T03:13:21;11.50;59.60
37560;DHT22;23398;50.928;7.084;2023-06-05T03:15:47;11.40;59.70
37560;DHT22;23398;50.928;7.084;2023-06-05T03:18:12;11.40;59.90
37560;DHT22;23398;50.928;7.084;2023-06-05T03:20:38;11.40;60.00
37560;DHT22;23398;50.928;7.084;2023-06-05T03:23:03;11.40;60.10
37560;DHT22;23398;50.928;7.084;2023-06-05T03:25:29;11.30;60.20
37560;DHT22;23398;50.928;7.084;2023-06-05T03:27:55;11.30;60.20
37560;DHT22;23398;50.928;7.084;2023-06-05T03:30:21;11.30;60.30
37560;DHT22;23398;50.928;7.084;2023-06-05T03:32:47;11.30;60.50
37560;DHT22;23398;50.928;7.084;2023-06-05T03:35:13;11.20;61.00
37560;DHT22;23398;50.928;7.084;2023-06-05T03:37:38;11.20;60.40
37560;DHT22;23398;50.928;7.084;2023-06-05T03:40:05;11.20;60.40
37560;DHT22;23398;50.928;7.084;2023-06-05T03:42:31;11.20;60.40
37560;DHT22;23398;50.928;7.084;2023-06-05T03:44:56;11.20;60.60
37560;DHT22;23398;50.928;7.084;2023-06-05T03:47:22;11.20;61.00
37560;DHT22;23398;50.928;7.084;2023-06-05T03:49:48;11.20;61.10
37560;DHT22;23398;50.928;7.084;2023-06-05T03:52:15;11.20;61.20
37560;DHT22;23398;50.928;7.084;2023-06-05T03:54:42;11.20;61.30
37560;DHT22;23398;50.928;7.084;2023-06-05T03:57:11;11.20;61.70
37560;DHT22;23398;50.928;7.084;2023-06-05T03:59:38;11.20;61.80
37560;DHT22;23398;50.928;7.084;2023-06-05T04:02:03;11.30;62.00
37560;DHT22;23398;50.928;7.084;2023-06-05T04:04:30;11.30;62.20
37560;DHT22;23398;50.928;7.084;2023-06-05T04:06:55;11.30;62.30
37560;DHT22;23398;50.928;7.084;2023-06-05T04:09:22;11.40;62.40
37560;DHT22;23398;50.928;7.084;2023-06-05T04:11:48;11.40;62.30
37560;DHT22;23398;50.928;7.084;2023-06-05T04:14:14;11.50;62.30
37560;DHT22;23398;50.928;7.084;2023-06-05T04:16:40;11.50;62.40
37560;DHT22;23398;50.928;7.084;2023-06-05T04:19:11;11.60;62.60
37560;DHT22;23398;50.928;7.084;2023-06-05T04:21:37;11.60;62.80
37560;DHT22;23398;50.928;7.084;2023-06-05T04:24:04;11.70;63.00
37560;DHT22;23398;50.928;7.084;2023-06-05T04:26:33;11.80;63.00
37560;DHT22;23398;50.928;7.084;2023-06-05T04:28:59;11.80;62.90
37560;DHT22;23398;50.928;7.084;2023-06-05T04:31:25;11.90;63.00
37560;DHT22;23398;50.928;7.084;2023-06-05T04:33:50;12.00;63.10
37560;DHT22;23398;50.928;7.084;2023-06-05T04:36:17;12.10;63.20
37560;DHT22;23398;50.928;7.084;2023-06-05T04:38:46;12.20;63.10
37560;DHT22;23398;50.928;7.084;2023-06-05T04:41:13;12.30;63.10
37560;DHT22;23398;50.928;7.084;2023-06-05T04:43:39;12.40;63.30
37560;DHT22;23398;50.928;7.084;2023-06-05T04:46:05;12.50;63.50
37560;DHT22;23398;50.928;7.084;2023-06-05T04:48:31;12.60;63.50
37560;DHT22;23398;50.928;7.084;2023-06-05T04:50:56;12.70;63.50
37560;DHT22;23398;50.928;7.084;2023-06-05T04:53:23;12.80;63.70
37560;DHT22;23398;50.928;7.084;2023-06-05T04:55:48;12.90;63.80
37560;DHT22;23398;50.928;7.084;2023-06-05T04:58:14;13.00;63.70
37560;DHT22;23398;50.928;7.084;2023-06-05T05:00:42;13.10;63.60
37560;DHT22;23398;50.928;7.084;2023-06-05T05:03:10;13.20;63.50
37560;DHT22;23398;50.928;7.084;2023-06-05T05:05:39;13.40;63.70
37560;DHT22;23398;50.928;7.084;2023-06-05T05:08:05;13.50;64.00
37560;DHT22;23398;50.928;7.084;2023-06-05T05:10:31;13.60;64.30
37560;DHT22;23398;50.928;7.084;2023-06-05T05:12:57;13.80;64.80
37560;DHT22;23398;50.928;7.084;2023-06-05T05:15:26;13.90;65.30
37560;DHT22;23398;50.928;7.084;2023-06-05T05:17:52;14.00;65.40
37560;DHT22;23398;50.928;7.084;2023-06-05T05:20:18;14.20;64.90
37560;DHT22;23398;50.928;7.084;2023-06-05T05:22:44;14.30;64.00
37560;DHT22;23398;50.928;7.084;2023-06-05T05:25:10;14.50;64.60
37560;DHT22;23398;50.928;7.084;2023-06-05T05:27:36;14.60;65.30
37560;DHT22;23398;50.928;7.084;2023-06-05T05:30:02;14.80;65.30
37560;DHT22;23398;50.928;7.084;2023-06-05T05:32:28;14.90;65.30
37560;DHT22;23398;50.928;7.084;2023-06-05T05:34:53;15.10;65.20
37560;DHT22;23398;50.928;7.084;2023-06-05T05:37:19;15.20;64.10
37560;DHT22;23398;50.928;7.084;2023-06-05T05:39:44;15.40;63.90
37560;DHT22;23398;50.928;7.084;2023-06-05T05:42:10;15.60;64.20
37560;DHT22;23398;50.928;7.084;2023-06-05T05:44:36;15.70;63.90
37560;DHT22;23398;50.928;7.084;2023-06-05T05:47:01;15.90;63.80
37560;DHT22;23398;50.928;7.084;2023-06-05T05:49:27;16.10;63.10
37560;DHT22;23398;50.928;7.084;2023-06-05T05:51:53;16.20;62.20
37560;DHT22;23398;50.928;7.084;2023-06-05T05:54:18;16.40;61.60
37560;DHT22;23398;50.928;7.084;2023-06-05T05:56:44;16.60;61.10
37560;DHT22;23398;50.928;7.084;2023-06-05T05:59:12;16.70;60.90
37560;DHT22;23398;50.928;7.084;2023-06-05T06:01:38;16.90;60.60
37560;DHT22;23398;50.928;7.084;2023-06-05T06:04:03;17.10;60.60
37560;DHT22;23398;50.928;7.084;2023-06-05T06:06:29;17.20;60.10
37560;DHT22;23398;50.928;7.084;2023-06-05T06:08:55;17.40;59.90
37560;DHT22;23398;50.928;7.084;2023-06-05T06:11:20;17.60;60.00
37560;DHT22;23398;50.928;7.084;2023-06-05T06:13:46;17.70;59.60
37560;DHT22;23398;50.928;7.084;2023-06-05T06:16:11;18.00;59.60
37560;DHT22;23398;50.928;7.084;2023-06-05T06:18:37;18.10;59.30
37560;DHT22;23398;50.928;7.084;2023-06-05T06:21:02;18.20;59.00
37560;DHT22;23398;50.928;7.084;2023-06-05T06:23:30;18.40;59.10
37560;DHT22;23398;50.928;7.084;2023-06-05T06:25:55;18.60;59.00
37560;DHT22;23398;50.928;7.084;2023-06-05T06:28:21;18.80;58.60
37560;DHT22;23398;50.928;7.084;2023-06-05T06:30:47;18.90;57.90
37560;DHT22;23398;50.928;7.084;2023-06-05T06:33:12;19.10;57.70
37560;DHT22;23398;50.928;7.084;2023-06-05T06:35:38;19.30;57.70
37560;DHT22;23398;50.928;7.084;2023-06-05T06:38:04;19.50;57.70
37560;DHT22;23398;50.928;7.084;2023-06-05T06:40:30;19.70;57.80
37560;DHT22;23398;50.928;7.084;2023-06-05T06:42:56;20.20;58.70
37560;DHT22;23398;50.928;7.084;2023-06-05T06:45:22;20.70;59.70
37560;DHT22;23398;50.928;7.084;2023-06-05T06:47:47;21.50;59.40
37560;DHT22;23398;50.928;7.084;2023-06-05T06:50:14;22.70;59.10
37560;DHT22;23398;50.928;7.084;2023-06-05T06:52:40;23.90;57.80
37560;DHT22;23398;50.928;7.084;2023-06-05T06:55:06;25.30;55.80
37560;DHT22;23398;50.928;7.084;2023-06-05T06:57:31;26.70;53.50
37560;DHT22;23398;50.928;7.084;2023-06-05T06:59:57;28.10;52.10
37560;DHT22;23398;50.928;7.084;2023-06-05T07:02:24;29.40;49.80
37560;DHT22;23398;50.928;7.084;2023-06-05T07:04:50;30.80;47.80
37560;DHT22;23398;50.928;7.084;2023-06-05T07:07:19;32.10;45.70
37560;DHT22;23398;50.928;7.084;2023-06-05T07:09:48;33.30;43.20
37560;DHT22;23398;50.928;7.084;2023-06-05T07:12:15;34.40;42.10
37560;DHT22;23398;50.928;7.084;2023-06-05T07:14:41;35.60;39.90
37560;DHT22;23398;50.928;7.084;2023-06-05T07:17:08;36.60;37.70
37560;DHT22;23398;50.928;7.084;2023-06-05T07:19:34;37.60;36.00
37560;DHT22;23398;50.928;7.084;2023-06-05T07:22:02;38.50;34.50
37560;DHT22;23398;50.928;7.084;2023-06-05T07:24:30;39.40;33.70
37560;DHT22;23398;50.928;7.084;2023-06-05T07:26:58;40.20;32.20
37560;DHT22;23398;50.928;7.084;2023-06-05T07:29:24;41.10;30.80
37560;DHT22;23398;50.928;7.084;2023-06-05T07:31:51;41.80;30.20
37560;DHT22;23398;50.928;7.084;2023-06-05T07:34:21;42.50;29.20
37560;DHT22;23398;50.928;7.084;2023-06-05T07:36:48;43.20;28.60
37560;DHT22;23398;50.928;7.084;2023-06-05T07:39:15;43.80;28.10
37560;DHT22;23398;50.928;7.084;2023-06-05T07:41:41;44.30;27.40
37560;DHT22;23398;50.928;7.084;2023-06-05T07:44:11;44.80;27.10
37560;DHT22;23398;50.928;7.084;2023-06-05T07:46:40;45.30;26.60
37560;DHT22;23398;50.928;7.084;2023-06-05T07:49:06;45.80;26.10
37560;DHT22;23398;50.928;7.084;2023-06-05T07:51:31;46.30;25.40
37560;DHT22;23398;50.928;7.084;2023-06-05T07:54:05;46.70;24.90
37560;DHT22;23398;50.928;7.084;2023-06-05T07:56:31;47.20;24.80
37560;DHT22;23398;50.928;7.084;2023-06-05T07:59:01;47.60;24.60
37560;DHT22;23398;50.928;7.084;2023-06-05T08:01:29;48.00;24.30
37560;DHT22;23398;50.928;7.084;2023-06-05T08:03:55;48.40;23.90
37560;DHT22;23398;50.928;7.084;2023-06-05T08:06:21;48.80;23.70
37560;DHT22;23398;50.928;7.084;2023-06-05T08:08:46;49.20;22.90
37560;DHT22;23398;50.928;7.084;2023-06-05T08:11:12;49.50;22.40
37560;DHT22;23398;50.928;7.084;2023-06-05T08:13:38;49.90;22.60
37560;DHT22;23398;50.928;7.084;2023-06-05T08:16:05;50.30;22.50
37560;DHT22;23398;50.928;7.084;2023-06-05T08:18:31;50.50;21.90
37560;DHT22;23398;50.928;7.084;2023-06-05T08:20:56;50.80;21.90
37560;DHT22;23398;50.928;7.084;2023-06-05T08:23:22;51.00;21.70
37560;DHT22;23398;50.928;7.084;2023-06-05T08:25:48;51.30;21.40
37560;DHT22;23398;50.928;7.084;2023-06-05T08:28:14;51.40;21.30
37560;DHT22;23398;50.928;7.084;2023-06-05T08:30:41;51.60;20.90
37560;DHT22;23398;50.928;7.084;2023-06-05T08:33:06;51.70;21.10
37560;DHT22;23398;50.928;7.084;2023-06-05T08:35:32;51.90;20.90
37560;DHT22;23398;50.928;7.084;2023-06-05T08:37:57;52.10;20.90
37560;DHT22;23398;50.928;7.084;2023-06-05T08:40:26;52.30;20.90
37560;DHT22;23398;50.928;7.084;2023-06-05T08:42:53;52.40;20.30
37560;DHT22;23398;50.928;7.084;2023-06-05T08:45:19;52.70;20.60
37560;DHT22;23398;50.928;7.084;2023-06-05T08:47:50;52.90;20.60
37560;DHT22;23398;50.928;7.084;2023-06-05T08:50:16;53.00;20.30
37560;DHT22;23398;50.928;7.084;2023-06-05T08:52:43;53.20;20.10
37560;DHT22;23398;50.928;7.084;2023-06-05T08:55:11;53.40;20.20
37560;DHT22;23398;50.928;7.084;2023-06-05T08:57:38;53.40;20.10
37560;DHT22;23398;50.928;7.084;2023-06-05T09:00:06;53.60;20.30
37560;DHT22;23398;50.928;7.084;2023-06-05T09:02:40;53.70;19.90
37560;DHT22;23398;50.928;7.084;2023-06-05T09:05:12;53.80;20.00
37560;DHT22;23398;50.928;7.084;2023-06-05T09:07:38;54.00;19.90
37560;DHT22;23398;50.928;7.084;2023-06-05T09:10:04;54.10;19.50
37560;DHT22;23398;50.928;7.084;2023-06-05T09:12:30;54.30;19.60
37560;DHT22;23398;50.928;7.084;2023-06-05T09:14:56;54.50;19.30
37560;DHT22;23398;50.928;7.084;2023-06-05T09:17:21;54.70;19.50
37560;DHT22;23398;50.928;7.084;2023-06-05T09:19:48;55.00;19.50
37560;DHT22;23398;50.928;7.084;2023-06-05T09:22:14;55.10;19.20
37560;DHT22;23398;50.928;7.084;2023-06-05T09:24:41;55.20;19.00
37560;DHT22;23398;50.928;7.084;2023-06-05T09:27:11;55.40;19.10
37560;DHT22;23398;50.928;7.084;2023-06-05T09:29:39;55.50;19.20
37560;DHT22;23398;50.928;7.084;2023-06-05T09:34:40;55.80;18.50
37560;DHT22;23398;50.928;7.084;2023-06-05T09:37:10;55.90;18.90
37560;DHT22;23398;50.928;7.084;2023-06-05T09:39:37;56.10;18.30
37560;DHT22;23398;50.928;7.084;2023-06-05T09:42:03;56.20;18.50
37560;DHT22;23398;50.928;7.084;2023-06-05T09:44:30;56.20;18.10
37560;DHT22;23398;50.928;7.084;2023-06-05T09:47:07;56.30;17.90
37560;DHT22;23398;50.928;7.084;2023-06-05T09:52:08;56.30;17.70
37560;DHT22;23398;50.928;7.084;2023-06-05T09:54:36;56.40;17.70
37560;DHT22;23398;50.928;7.084;2023-06-05T09:57:04;56.40;18.20
37560;DHT22;23398;50.928;7.084;2023-06-05T09:59:31;56.30;17.90
37560;DHT22;23398;50.928;7.084;2023-06-05T10:02:00;56.30;17.80
37560;DHT22;23398;50.928;7.084;2023-06-05T10:04:28;56.20;18.10
37560;DHT22;23398;50.928;7.084;2023-06-05T10:07:00;56.00;18.00
37560;DHT22;23398;50.928;7.084;2023-06-05T10:09:29;55.90;18.10
37560;DHT22;23398;50.928;7.084;2023-06-05T10:11:56;55.70;17.90
37560;DHT22;23398;50.928;7.084;2023-06-05T10:14:22;55.70;18.10
37560;DHT22;23398;50.928;7.084;2023-06-05T10:16:51;55.50;17.20
37560;DHT22;23398;50.928;7.084;2023-06-05T10:19:21;55.20;17.50
37560;DHT22;23398;50.928;7.084;2023-06-05T10:21:47;55.00;17.60
37560;DHT22;23398;50.928;7.084;2023-06-05T10:24:18;54.80;17.10
37560;DHT22;23398;50.928;7.084;2023-06-05T10:35:52;53.70;17.90
37560;DHT22;23398;50.928;7.084;2023-06-05T10:38:26;53.50;17.80
37560;DHT22;23398;50.928;7.084;2023-06-05T10:40:54;53.20;17.60
37560;DHT22;23398;50.928;7.084;2023-06-05T10:43:47;52.90;17.90
37560;DHT22;23398;50.928;7.084;2023-06-05T10:46:32;52.40;18.10
37560;DHT22;23398;50.928;7.084;2023-06-05T10:56:59;49.10;18.40
37560;DHT22;23398;50.928;7.084;2023-06-05T10:59:39;48.50;18.80
37560;DHT22;23398;50.928;7.084;2023-06-05T11:15:08;41.60;21.80
37560;DHT22;23398;50.928;7.084;2023-06-05T11:17:36;40.80;21.90
37560;DHT22;23398;50.928;7.084;2023-06-05T11:20:04;40.10;22.80
37560;DHT22;23398;50.928;7.084;2023-06-05T11:22:31;39.40;22.70
37560;DHT22;23398;50.928;7.084;2023-06-05T11:27:49;38.10;23.00
37560;DHT22;23398;50.928;7.084;2023-06-05T11:30:16;37.70;23.10
37560;DHT22;23398;50.928;7.084;2023-06-05T11:32:43;37.10;23.40
37560;DHT22;23398;50.928;7.084;2023-06-05T11:35:09;36.60;23.30
37560;DHT22;23398;50.928;7.084;2023-06-05T11:37:36;36.10;23.60
37560;DHT22;23398;50.928;7.084;2023-06-05T11:40:03;35.70;23.80
37560;DHT22;23398;50.928;7.084;2023-06-05T11:42:31;35.20;24.90
37560;DHT22;23398;50.928;7.084;2023-06-05T11:44:56;34.80;25.40
37560;DHT22;23398;50.928;7.084;2023-06-05T11:47:26;34.40;26.50
37560;DHT22;23398;50.928;7.084;2023-06-05T11:49:53;34.10;26.40
37560;DHT22;23398;50.928;7.084;2023-06-05T11:52:20;33.80;26.90
37560;DHT22;23398;50.928;7.084;2023-06-05T11:54:47;33.60;27.70
37560;DHT22;23398;50.928;7.084;2023-06-05T11:57:39;33.40;27.10
37560;DHT22;23398;50.928;7.084;2023-06-05T12:00:07;33.30;27.60
37560;DHT22;23398;50.928;7.084;2023-06-05T12:02:33;33.10;27.10
37560;DHT22;23398;50.928;7.084;2023-06-05T12:04:59;33.10;27.90
37560;DHT22;23398;50.928;7.084;2023-06-05T12:07:31;32.90;27.70
37560;DHT22;23398;50.928;7.084;2023-06-05T12:10:01;32.80;26.20
37560;DHT22;23398;50.928;7.084;2023-06-05T12:12:29;32.70;25.40
37560;DHT22;23398;50.928;7.084;2023-06-05T12:14:55;32.60;25.10
37560;DHT22;23398;50.928;7.084;2023-06-05T12:17:21;32.50;25.20
37560;DHT22;23398;50.928;7.084;2023-06-05T12:19:54;32.40;26.00
37560;DHT22;23398;50.928;7.084;2023-06-05T12:22:19;32.30;26.00
37560;DHT22;23398;50.928;7.084;2023-06-05T12:24:46;32.20;26.80
37560;DHT22;23398;50.928;7.084;2023-06-05T12:27:12;32.10;26.60
37560;DHT22;23398;50.928;7.084;2023-06-05T12:29:38;32.10;25.70
37560;DHT22;23398;50.928;7.084;2023-06-05T12:32:21;32.00;25.80
37560;DHT22;23398;50.928;7.084;2023-06-05T12:34:48;32.70;25.70
37560;DHT22;23398;50.928;7.084;2023-06-05T12:37:27;31.90;26.10
37560;DHT22;23398;50.928;7.084;2023-06-05T12:39:55;31.80;25.70
37560;DHT22;23398;50.928;7.084;2023-06-05T12:42:21;31.70;26.00
37560;DHT22;23398;50.928;7.084;2023-06-05T12:44:47;31.60;26.00
37560;DHT22;23398;50.928;7.084;2023-06-05T12:47:12;31.50;26.40
37560;DHT22;23398;50.928;7.084;2023-06-05T12:49:38;31.30;26.20
37560;DHT22;23398;50.928;7.084;2023-06-05T12:52:05;31.20;26.70
37560;DHT22;23398;50.928;7.084;2023-06-05T12:54:32;31.10;26.20
37560;DHT22;23398;50.928;7.084;2023-06-05T12:56:58;31.10;27.00
37560;DHT22;23398;50.928;7.084;2023-06-05T12:59:23;31.00;26.90
37560;DHT22;23398;50.928;7.084;2023-06-05T13:01:49;30.90;27.10
37560;DHT22;23398;50.928;7.084;2023-06-05T13:04:15;30.90;26.60
37560;DHT22;23398;50.928;7.084;2023-06-05T13:06:41;30.80;28.20
37560;DHT22;23398;50.928;7.084;2023-06-05T13:09:06;30.70;28.30
37560;DHT22;23398;50.928;7.084;2023-06-05T13:11:32;30.60;28.70
37560;DHT22;23398;50.928;7.084;2023-06-05T13:13:58;30.50;28.90
37560;DHT22;23398;50.928;7.084;2023-06-05T13:16:23;30.40;28.70
37560;DHT22;23398;50.928;7.084;2023-06-05T13:18:49;30.40;28.20
37560;DHT22;23398;50.928;7.084;2023-06-05T13:21:14;30.40;27.40
37560;DHT22;23398;50.928;7.084;2023-06-05T13:23:40;30.40;27.10
37560;DHT22;23398;50.928;7.084;2023-06-05T13:26:06;30.40;28.30
37560;DHT22;23398;50.928;7.084;2023-06-05T13:28:32;30.40;28.70
37560;DHT22;23398;50.928;7.084;2023-06-05T13:30:57;30.50;28.50
37560;DHT22;23398;50.928;7.084;2023-06-05T13:33:23;30.50;28.40
37560;DHT22;23398;50.928;7.084;2023-06-05T13:35:50;30.50;27.80
37560;DHT22;23398;50.928;7.084;2023-06-05T13:38:15;30.60;28.20
37560;DHT22;23398;50.928;7.084;2023-06-05T13:40:41;30.50;28.90
37560;DHT22;23398;50.928;7.084;2023-06-05T13:43:08;30.60;28.30
37560;DHT22;23398;50.928;7.084;2023-06-05T13:45:34;30.50;28.40
37560;DHT22;23398;50.928;7.084;2023-06-05T13:47:59;30.50;28.70
37560;DHT22;23398;50.928;7.084;2023-06-05T13:50:25;30.50;28.80
37560;DHT22;23398;50.928;7.084;2023-06-05T13:52:51;30.40;29.60
37560;DHT22;23398;50.928;7.084;2023-06-05T13:55:16;30.40;29.60
37560;DHT22;23398;50.928;7.084;2023-06-05T13:57:42;30.40;29.90
37560;DHT22;23398;50.928;7.084;2023-06-05T14:00:08;30.30;29.50
37560;DHT22;23398;50.928;7.084;2023-06-05T14:02:33;30.30;29.80
37560;DHT22;23398;50.928;7.084;2023-06-05T14:04:59;30.30;30.00
37560;DHT22;23398;50.928;7.084;2023-06-05T14:07:25;30.20;30.00
37560;DHT22;23398;50.928;7.084;2023-06-05T14:09:51;30.20;30.00
37560;DHT22;23398;50.928;7.084;2023-06-05T14:12:17;30.10;30.10
37560;DHT22;23398;50.928;7.084;2023-06-05T14:14:43;30.10;30.40
37560;DHT22;23398;50.928;7.084;2023-06-05T14:17:08;30.10;30.40
37560;DHT22;23398;50.928;7.084;2023-06-05T14:19:34;30.00;30.00
37560;DHT22;23398;50.928;7.084;2023-06-05T14:22:01;30.00;30.10
37560;DHT22;23398;50.928;7.084;2023-06-05T14:24:26;30.00;30.10
37560;DHT22;23398;50.928;7.084;2023-06-05T14:26:53;29.90;31.50
37560;DHT22;23398;50.928;7.084;2023-06-05T14:29:19;29.90;31.00
37560;DHT22;23398;50.928;7.084;2023-06-05T14:31:44;29.90;31.20
37560;DHT22;23398;50.928;7.084;2023-06-05T14:34:10;29.90;31.10
37560;DHT22;23398;50.928;7.084;2023-06-05T14:36:35;29.90;31.20
37560;DHT22;23398;50.928;7.084;2023-06-05T14:39:01;29.90;31.50
37560;DHT22;23398;50.928;7.084;2023-06-05T14:41:28;29.90;31.70
37560;DHT22;23398;50.928;7.084;2023-06-05T14:43:55;29.80;31.70
37560;DHT22;23398;50.928;7.084;2023-06-05T14:46:21;29.80;31.60
37560;DHT22;23398;50.928;7.084;2023-06-05T14:48:46;29.70;31.70
37560;DHT22;23398;50.928;7.084;2023-06-05T14:51:12;29.70;31.50
37560;DHT22;23398;50.928;7.084;2023-06-05T14:53:38;29.60;31.40
37560;DHT22;23398;50.928;7.084;2023-06-05T14:56:03;29.60;31.60
37560;DHT22;23398;50.928;7.084;2023-06-05T14:58:29;29.60;31.80
37560;DHT22;23398;50.928;7.084;2023-06-05T15:00:55;29.50;31.50
37560;DHT22;23398;50.928;7.084;2023-06-05T15:03:21;29.50;31.30
37560;DHT22;23398;50.928;7.084;2023-06-05T15:05:46;29.40;31.80
37560;DHT22;23398;50.928;7.084;2023-06-05T15:08:12;29.40;32.00
37560;DHT22;23398;50.928;7.084;2023-06-05T15:10:38;29.30;32.20
37560;DHT22;23398;50.928;7.084;2023-06-05T15:13:03;29.30;33.30
37560;DHT22;23398;50.928;7.084;2023-06-05T15:15:29;29.30;33.00
37560;DHT22;23398;50.928;7.084;2023-06-05T15:17:55;29.20;32.00
37560;DHT22;23398;50.928;7.084;2023-06-05T15:20:22;29.20;32.70
37560;DHT22;23398;50.928;7.084;2023-06-05T15:22:48;29.20;32.70
37560;DHT22;23398;50.928;7.084;2023-06-05T15:25:14;29.20;32.30
37560;DHT22;23398;50.928;7.084;2023-06-05T15:27:39;29.10;32.70
37560;DHT22;23398;50.928;7.084;2023-06-05T15:30:06;29.10;32.30
37560;DHT22;23398;50.928;7.084;2023-06-05T15:32:32;29.10;32.40
37560;DHT22;23398;50.928;7.084;2023-06-05T15:34:58;29.10;33.30
37560;DHT22;23398;50.928;7.084;2023-06-05T15:37:24;29.10;33.20
37560;DHT22;23398;50.928;7.084;2023-06-05T15:39:49;29.00;33.00
37560;DHT22;23398;50.928;7.084;2023-06-05T15:42:18;28.90;32.40
37560;DHT22;23398;50.928;7.084;2023-06-05T15:44:46;28.90;32.60
37560;DHT22;23398;50.928;7.084;2023-06-05T15:47:12;28.90;32.90
37560;DHT22;23398;50.928;7.084;2023-06-05T15:49:38;28.90;31.40
37560;DHT22;23398;50.928;7.084;2023-06-05T15:52:03;28.80;32.80
37560;DHT22;23398;50.928;7.084;2023-06-05T15:54:29;28.80;32.60
37560;DHT22;23398;50.928;7.084;2023-06-05T15:57:07;28.80;32.50
37560;DHT22;23398;50.928;7.084;2023-06-05T15:59:33;28.80;32.80
37560;DHT22;23398;50.928;7.084;2023-06-05T16:01:59;28.80;32.90
37560;DHT22;23398;50.928;7.084;2023-06-05T16:04:25;28.70;33.00
37560;DHT22;23398;50.928;7.084;2023-06-05T16:06:51;28.70;33.60